Time;durP1;ratioP1;P1;durP2;ratioP2;P2;SDS_P1;SDS_P2;PMS_P1;PMS_P2;Temp;Humidity;BMP_temperature;BMP_pressure;BME280_temperature;BME280_humidity;BME280_pressure;Samples;Min_cycle;Max_cycle;Signal;HPM_P1;HPM_P2
2022/04/25 00:00:25;;;;;;;45.72;35.65;;;9.30;99.90;;;10.05;100.00;96825.22;5264803;28;20228;-64
2022/04/25 00:02:59;;;;;;;45.80;36.17;;;9.30;99.90;;;10.03;100.00;96825.97;5260541;28;20282;-64
2022/04/25 00:05:33;;;;;;;51.80;40.08;;;9.30;99.90;;;10.06;100.00;96832.06;5260671;28;20293;-64
2022/04/25 00:08:07;;;;;;;57.60;41.03;;;9.20;99.90;;;10.05;100.00;96832.00;5261576;28;20226;-64
2022/04/25 00:10:40;;;;;;;56.78;41.25;;;9.30;99.90;;;10.07;100.00;96833.81;5262912;28;20280;-64
2022/04/25 00:13:14;;;;;;;54.13;39.03;;;9.30;99.90;;;10.07;100.00;96831.28;5261857;28;20204;-64
2022/04/25 00:15:47;;;;;;;49.90;38.25;;;9.20;99.90;;;10.04;100.00;96831.09;5262230;28;20368;-64
2022/04/25 00:18:21;;;;;;;51.88;38.75;;;9.30;99.90;;;10.08;100.00;96838.09;5261240;28;20246;-64
2022/04/25 00:20:56;;;;;;;50.90;38.55;;;9.30;99.90;;;10.09;100.00;96833.88;5259560;28;20200;-64
2022/04/25 00:23:29;;;;;;;52.83;40.70;;;9.30;99.90;;;10.10;100.00;96835.59;5257557;28;20195;-64
2022/04/25 00:26:03;;;;;;;57.35;40.70;;;9.30;99.90;;;10.04;100.00;96833.66;5259642;28;20215;-64
2022/04/25 00:28:36;;;;;;;53.10;39.53;;;9.20;99.90;;;10.05;100.00;96842.22;5254072;28;20244;-64
2022/04/25 00:31:09;;;;;;;53.65;41.03;;;9.20;99.90;;;10.03;100.00;96844.69;5260546;28;20640;-65
2022/04/25 00:33:43;;;;;;;54.97;40.10;;;9.20;99.90;;;10.07;100.00;96841.47;5258585;28;20199;-65
2022/04/25 00:36:17;;;;;;;58.60;40.97;;;9.20;99.90;;;10.04;100.00;96836.22;5259894;28;20298;-65
2022/04/25 00:38:50;;;;;;;52.88;39.72;;;9.30;99.90;;;10.04;100.00;96838.78;5254259;28;20257;-65
2022/04/25 00:41:23;;;;;;;55.10;41.58;;;9.30;99.90;;;10.06;100.00;96843.97;5256094;28;20224;-65
2022/04/25 00:43:57;;;;;;;48.72;38.92;;;9.30;99.90;;;10.02;100.00;96831.88;5257525;28;20294;-65
2022/04/25 00:46:30;;;;;;;55.73;40.67;;;9.30;99.90;;;10.04;100.00;96836.22;5261131;28;20223;-65
2022/04/25 00:49:04;;;;;;;48.07;38.07;;;9.20;99.90;;;10.06;100.00;96838.84;5260651;28;20600;-65
2022/04/25 00:51:38;;;;;;;53.50;40.83;;;9.30;99.90;;;10.02;100.00;96847.19;5256355;28;20215;-65
2022/04/25 00:54:11;;;;;;;56.25;41.40;;;9.20;99.90;;;10.01;100.00;96840.31;5257310;28;20925;-64
2022/04/25 00:56:46;;;;;;;57.70;43.03;;;9.20;99.90;;;10.09;100.00;96844.94;5260629;28;20707;-64
2022/04/25 00:59:21;;;;;;;55.70;41.40;;;9.30;99.90;;;10.05;100.00;96847.31;5258271;28;20256;-64
2022/04/25 01:01:54;;;;;;;51.80;39.58;;;9.20;99.90;;;10.06;100.00;96843.97;5259665;28;20231;-64
2022/04/25 01:04:28;;;;;;;54.63;41.08;;;9.20;99.90;;;10.05;100.00;96842.22;5255744;28;20411;-64
2022/04/25 01:07:03;;;;;;;55.00;41.50;;;9.30;99.90;;;10.04;100.00;96848.13;5256839;28;20691;-64
2022/04/25 01:09:36;;;;;;;59.90;42.83;;;9.20;99.90;;;10.05;100.00;96842.22;5259445;28;20216;-64
2022/04/25 01:12:10;;;;;;;54.45;41.40;;;9.30;99.90;;;10.08;100.00;96839.78;5260770;28;20245;-64
2022/04/25 01:14:43;;;;;;;53.17;41.58;;;9.30;99.90;;;10.12;100.00;96841.66;5257200;28;20287;-64
2022/04/25 01:17:16;;;;;;;55.80;41.03;;;9.30;99.90;;;10.11;100.00;96845.03;5258513;28;20269;-64
2022/04/25 01:19:49;;;;;;;56.70;41.33;;;9.40;99.90;;;10.10;100.00;96841.59;5255836;28;20697;-65
2022/04/25 01:22:32;;;;;;;59.75;43.63;;;9.30;99.90;;;10.16;100.00;96853.75;5260310;28;20641;-64
2022/04/25 01:27:58;;;;;;;57.33;42.40;;;9.30;99.90;;;10.09;100.00;96861.94;5258555;28;20312;-64
2022/04/25 01:30:32;;;;;;;57.47;43.28;;;9.30;99.90;;;10.08;100.00;96850.00;5263594;28;20195;-65
2022/04/25 01:33:05;;;;;;;52.63;42.73;;;9.30;99.90;;;10.08;100.00;96855.13;5256399;28;20192;-65
2022/04/25 01:35:40;;;;;;;61.83;44.40;;;9.20;99.90;;;10.02;100.00;96862.50;5256894;28;20310;-64
2022/04/25 01:38:13;;;;;;;67.05;45.60;;;9.20;99.90;;;10.00;100.00;96866.69;5257700;28;20286;-64
2022/04/25 01:40:48;;;;;;;56.03;44.88;;;9.20;99.90;;;10.01;100.00;96865.84;5252964;28;20235;-64
2022/04/25 01:43:21;;;;;;;57.75;43.58;;;9.20;99.90;;;10.01;100.00;96856.50;5257462;28;20706;-64
2022/04/25 01:45:54;;;;;;;60.80;45.78;;;9.20;99.90;;;10.00;100.00;96864.13;5256937;28;20244;-65
2022/04/25 01:48:27;;;;;;;61.03;45.97;;;9.30;99.90;;;10.00;100.00;96864.13;5253467;28;20606;-64
2022/04/25 01:51:01;;;;;;;56.83;43.00;;;9.30;99.90;;;10.02;100.00;96867.63;5255644;28;20291;-64
2022/04/25 01:53:34;;;;;;;57.42;44.25;;;9.30;99.90;;;10.01;100.00;96860.75;5257135;28;20228;-65
2022/04/25 01:56:09;;;;;;;61.05;45.05;;;9.20;99.90;;;10.05;100.00;96862.66;5257324;28;20247;-64
2022/04/25 01:58:42;;;;;;;59.80;45.50;;;9.20;99.90;;;10.02;100.00;96867.63;5255682;28;20691;-64
2022/04/25 02:01:15;;;;;;;60.80;45.67;;;9.20;99.90;;;10.04;100.00;96865.97;5264043;28;20201;-64
2022/04/25 02:03:48;;;;;;;57.63;46.03;;;9.20;99.90;;;10.04;100.00;96868.53;5260317;28;20198;-65
2022/04/25 02:06:21;;;;;;;62.03;46.58;;;9.20;99.90;;;10.06;100.00;96866.94;5264527;28;20307;-65
2022/04/25 02:08:55;;;;;;;58.65;45.40;;;9.20;99.90;;;10.02;100.00;96872.72;5260550;28;20243;-65
2022/04/25 02:11:31;;;;;;;55.35;43.63;;;9.20;99.90;;;10.06;100.00;96870.34;5263727;28;20282;-65
2022/04/25 02:14:04;;;;;;;59.00;45.22;;;9.20;99.90;;;10.05;100.00;96867.75;5260849;28;20365;-65
2022/04/25 02:16:38;;;;;;;62.50;45.60;;;9.20;99.90;;;10.05;100.00;96872.84;5258293;28;20277;-65
2022/04/25 02:19:12;;;;;;;54.83;43.17;;;9.20;99.90;;;10.00;100.00;96875.19;5260027;28;20213;-65
2022/04/25 02:21:45;;;;;;;59.80;44.97;;;9.20;99.90;;;10.03;100.00;96874.47;5264435;28;20287;-65
2022/04/25 02:24:18;;;;;;;56.83;44.45;;;9.20;99.90;;;10.04;100.00;96877.06;5259731;28;20223;-65
2022/04/25 02:26:52;;;;;;;63.75;46.97;;;9.20;99.90;;;10.02;100.00;96873.59;5265106;28;20221;-65
2022/04/25 02:29:25;;;;;;;64.93;48.20;;;9.20;99.90;;;10.02;100.00;96877.84;5260371;28;20236;-65
2022/04/25 02:31:59;;;;;;;62.13;47.53;;;9.20;99.90;;;10.00;100.00;96872.66;5261850;28;20200;-65
2022/04/25 02:34:33;;;;;;;62.58;46.58;;;9.20;99.90;;;9.98;100.00;96875.94;5265205;28;20253;-65
2022/04/25 02:37:07;;;;;;;58.75;45.88;;;9.20;99.90;;;9.95;100.00;96886.03;5258756;28;20211;-64
2022/04/25 02:39:41;;;;;;;65.22;47.28;;;9.20;99.90;;;9.97;100.00;96885.28;5264191;28;20192;-65
2022/04/25 02:42:15;;;;;;;63.92;48.55;;;9.20;99.90;;;9.96;100.00;96892.84;5260529;28;20197;-64
2022/04/25 02:44:48;;;;;;;61.95;46.63;;;9.10;99.90;;;10.02;100.00;96893.16;5252900;28;20204;-64
2022/04/25 02:47:22;;;;;;;59.70;45.37;;;9.20;99.90;;;10.02;100.00;96893.16;5258509;28;20220;-65
2022/04/25 02:49:55;;;;;;;59.95;46.15;;;9.10;99.90;;;10.03;100.00;96895.75;5259453;28;20257;-65
2022/04/25 02:52:28;;;;;;;61.95;48.17;;;9.10;99.90;;;10.03;100.00;96900.00;5263149;28;20721;-64
2022/04/25 02:55:01;;;;;;;62.38;47.67;;;9.10;99.90;;;10.07;100.00;96901.84;5261801;28;20284;-64
2022/04/25 02:57:36;;;;;;;66.28;48.78;;;9.20;99.90;;;9.98;100.00;96899.78;5263413;28;20261;-64
2022/04/25 03:00:10;;;;;;;60.37;47.73;;;9.20;99.90;;;9.95;100.00;96906.44;5261403;28;20278;-64
2022/04/25 03:02:44;;;;;;;70.27;50.17;;;9.10;99.90;;;9.86;100.00;96914.56;5259541;28;20230;-64
2022/04/25 03:05:17;;;;;;;61.60;46.70;;;9.10;99.90;;;9.87;100.00;96912.09;5260186;28;20207;-64
2022/04/25 03:07:50;;;;;;;65.60;48.57;;;9.00;99.90;;;9.84;100.00;96909.41;5260195;28;20273;-64
2022/04/25 03:10:23;;;;;;;65.33;49.07;;;9.00;99.90;;;9.80;100.00;96919.41;5261688;28;20736;-64
2022/04/25 03:12:58;;;;;;;60.00;46.50;;;8.90;99.90;;;9.79;100.00;96915.97;5258270;28;20685;-64
2022/04/25 03:15:31;;;;;;;74.75;50.83;;;8.90;99.90;;;9.83;100.00;96911.88;5259016;28;20261;-64
2022/04/25 03:18:05;;;;;;;70.82;49.65;;;9.00;99.90;;;9.83;100.00;96917.84;5257886;28;20235;-64
2022/04/25 03:20:39;;;;;;;65.97;49.57;;;9.00;99.90;;;9.86;100.00;96924.78;5258641;28;20261;-64
2022/04/25 03:23:14;;;;;;;62.72;48.92;;;9.00;99.90;;;9.79;100.00;96921.09;5260880;28;20282;-64
2022/04/25 03:25:48;;;;;;;69.25;49.50;;;9.00;99.90;;;9.79;100.00;96915.97;5259788;28;20243;-64
2022/04/25 03:28:22;;;;;;;67.30;49.47;;;9.00;99.90;;;9.80;100.00;96925.38;5262253;28;20362;-64
2022/04/25 03:30:55;;;;;;;76.40;51.43;;;9.00;99.90;;;9.80;100.00;96929.59;5262299;28;20607;-64
2022/04/25 03:33:31;;;;;;;69.80;51.63;;;9.00;99.90;;;9.78;100.00;96931.22;5263733;28;20192;-64
2022/04/25 03:36:05;;;;;;;64.07;48.90;;;9.00;99.90;;;9.66;100.00;96929.84;5260204;28;20331;-64
2022/04/25 03:38:38;;;;;;;72.30;51.13;;;8.90;99.90;;;9.69;100.00;96939.31;5261117;28;20290;-64
2022/04/25 03:41:12;;;;;;;71.50;51.92;;;8.90;99.90;;;9.70;100.00;96946.19;5260406;28;20208;-64
2022/04/25 03:43:46;;;;;;;79.23;52.00;;;9.00;99.90;;;9.73;100.00;96941.22;5256715;28;20727;-64
2022/04/25 03:46:20;;;;;;;73.13;50.27;;;9.00;99.90;;;9.73;100.00;96946.34;5258860;28;20632;-64
2022/04/25 03:48:54;;;;;;;70.73;49.93;;;9.00;99.90;;;9.69;100.00;96944.44;5261350;28;20291;-64
2022/04/25 03:51:28;;;;;;;74.30;52.70;;;8.90;99.90;;;9.67;100.00;96953.69;5263836;28;20299;-64
2022/04/25 03:54:01;;;;;;;69.50;49.57;;;8.90;99.90;;;9.64;100.00;96948.44;5261152;28;20248;-64
2022/04/25 03:59:26;;;;;;;77.47;51.60;;;8.80;99.90;;;9.63;100.00;96956.91;5256817;28;20279;-64
2022/04/25 04:01:59;;;;;;;72.13;50.70;;;8.90;99.90;;;9.69;100.00;96964.84;5254997;28;20238;-64
2022/04/25 04:04:33;;;;;;;80.63;54.00;;;9.00;99.90;;;9.73;100.00;96966.75;5261720;28;20196;-64
2022/04/25 04:07:06;;;;;;;65.97;49.47;;;9.00;99.90;;;9.74;100.00;96965.94;5258580;28;20216;-64
2022/04/25 04:09:49;;;;;;;66.53;50.20;;;9.00;99.90;;;9.75;100.00;96974.44;5260963;28;20222;-64
2022/04/25 04:12:26;;;;;;;76.28;53.33;;;9.00;99.90;;;9.78;100.00;96972.91;5257999;28;20373;-64
2022/04/25 04:15:02;;;;;;;79.13;51.97;;;9.00;99.90;;;9.78;100.00;96975.47;5260563;28;20637;-64
2022/04/25 04:17:36;;;;;;;69.43;49.03;;;9.00;99.90;;;9.74;100.00;96981.25;5259486;28;20191;-64
2022/04/25 04:20:11;;;;;;;66.90;48.73;;;9.00;99.90;;;9.75;100.00;96982.97;5260233;28;20261;-63
2022/04/25 04:22:44;;;;;;;76.80;53.47;;;9.00;99.90;;;9.79;100.00;96981.47;5261417;28;20671;-64
2022/04/25 04:25:18;;;;;;;68.03;50.28;;;9.00;99.90;;;9.79;100.00;96996.78;5262607;28;20242;-63
2022/04/25 04:27:51;;;;;;;81.07;52.93;;;9.00;99.90;;;9.79;100.00;97000.19;5256540;28;20203;-65
2022/04/25 04:30:25;;;;;;;73.40;52.45;;;9.00;99.90;;;9.77;100.00;96998.38;5256934;28;20314;-63
2022/04/25 04:32:58;;;;;;;73.57;52.00;;;9.00;99.90;;;9.83;100.00;97002.06;5248863;28;20298;-65
2022/04/25 04:38:22;;;;;;;75.37;53.30;;;8.90;99.90;;;9.74;100.00;97014.41;5253206;28;20635;-64
2022/04/25 04:40:55;;;;;;;73.20;52.53;;;8.90;99.90;;;9.76;100.00;97017.91;5260002;28;20241;-65
2022/04/25 04:43:28;;;;;;;75.13;51.30;;;8.90;99.90;;;9.74;100.00;97014.41;5257048;28;20283;-65
2022/04/25 04:46:03;;;;;;;69.95;51.20;;;8.90;99.90;;;9.67;100.00;97012.38;5253569;28;20228;-66
2022/04/25 04:48:36;;;;;;;62.83;48.92;;;8.90;99.90;;;9.65;100.00;97004.66;5252454;28;20199;-64
2022/04/25 04:51:10;;;;;;;65.22;50.20;;;8.80;99.90;;;9.61;100.00;97007.84;5256792;28;20246;-63
2022/04/25 04:53:44;;;;;;;69.87;50.80;;;8.80;99.90;;;9.57;100.00;97016.16;5261079;28;20203;-64
2022/04/25 04:56:17;;;;;;;75.27;51.23;;;8.80;99.90;;;9.54;100.00;97023.69;5257377;28;20311;-64
2022/04/25 04:58:50;;;;;;;73.65;50.10;;;8.80;99.90;;;9.55;100.00;97027.97;5259074;28;20711;-64
2022/04/25 05:01:25;;;;;;;75.32;50.45;;;8.80;99.90;;;9.61;100.00;97027.38;5261326;28;20238;-64
2022/04/25 05:04:00;;;;;;;70.27;49.63;;;8.80;99.90;;;9.69;100.00;97036.28;5258307;28;20208;-64
2022/04/25 05:06:33;;;;;;;73.40;51.73;;;8.90;99.90;;;9.70;100.00;97038.06;5263834;28;20254;-64
2022/04/25 05:09:07;;;;;;;80.47;53.83;;;8.90;99.90;;;9.78;100.00;97036.69;5255300;28;20291;-64
2022/04/25 05:11:40;;;;;;;74.53;53.23;;;9.00;99.90;;;9.81;100.00;97043.63;5261565;28;20753;-64
2022/04/25 05:14:14;;;;;;;79.87;54.00;;;9.00;99.90;;;9.88;100.00;97044.00;5258660;28;20300;-63
2022/04/25 05:16:48;;;;;;;71.40;52.35;;;9.10;99.90;;;9.92;100.00;97040.78;5254001;28;20229;-64
2022/04/25 05:19:22;;;;;;;74.15;53.25;;;9.00;99.90;;;10.01;100.00;97044.56;5254848;28;20211;-64
2022/04/25 05:21:55;;;;;;;81.68;54.50;;;9.10;99.90;;;10.05;100.00;97046.47;5267933;28;20707;-64
2022/04/25 05:24:28;;;;;;;74.70;53.53;;;9.20;99.90;;;10.07;100.00;97049.94;5257197;28;20194;-64
2022/04/25 05:27:01;;;;;;;73.00;55.17;;;9.20;99.90;;;10.15;100.00;97048.59;5253657;28;20305;-64
2022/04/25 05:29:35;;;;;;;74.88;55.45;;;9.30;99.90;;;10.46;100.00;97055.13;5259389;28;20686;-64
2022/04/25 05:32:09;;;;;;;76.40;54.95;;;9.60;99.90;;;10.86;100.00;97059.44;5260225;28;20294;-64
2022/04/25 05:34:44;;;;;;;78.40;56.20;;;10.00;99.90;;;11.20;100.00;97064.28;5264501;28;20656;-64
2022/04/25 05:37:17;;;;;;;69.93;53.42;;;10.20;99.90;;;11.30;100.00;97060.41;5267221;28;20219;-64
2022/04/25 05:39:50;;;;;;;60.88;50.03;;;10.10;99.90;;;11.17;100.00;97065.03;5263908;28;20227;-64
2022/04/25 05:42:23;;;;;;;59.80;51.25;;;10.00;99.90;;;11.10;100.00;97064.69;5259583;28;20283;-64
2022/04/25 05:44:57;;;;;;;56.83;49.20;;;9.80;99.90;;;11.01;100.00;97073.72;5257748;28;20286;-64
2022/04/25 05:47:33;;;;;;;55.63;48.40;;;9.80;99.90;;;10.99;100.00;97074.50;5262912;28;20243;-64
2022/04/25 05:53:02;;;;;;;56.10;47.83;;;9.80;99.90;;;10.87;100.00;97084.16;5257065;28;20196;-64
2022/04/25 05:55:36;;;;;;;54.58;47.08;;;9.80;99.90;;;10.95;100.00;97082.81;5260702;28;20246;-64
2022/04/25 05:58:10;;;;;;;55.03;48.72;;;9.70;99.90;;;10.98;100.00;97080.41;5260354;28;20245;-64
2022/04/25 06:00:43;;;;;;;54.38;47.55;;;9.80;99.90;;;11.14;100.00;97089.59;5260611;28;20296;-63
2022/04/25 06:03:17;;;;;;;54.47;47.35;;;9.90;99.90;;;11.16;100.00;97093.97;5262378;28;20286;-63
2022/04/25 06:05:53;;;;;;;56.20;49.60;;;10.00;99.90;;;11.36;100.00;97091.34;5266656;28;20276;-63
2022/04/25 06:08:27;;;;;;;53.95;47.75;;;10.10;99.90;;;11.42;100.00;97087.38;5256288;28;20286;-63
2022/04/25 06:11:00;;;;;;;53.42;47.42;;;10.20;99.90;;;11.48;100.00;97087.63;5261615;28;20216;-63
2022/04/25 06:13:33;;;;;;;51.35;45.75;;;10.10;99.90;;;11.37;100.00;97095.69;5255030;28;20200;-63
2022/04/25 06:16:06;;;;;;;46.65;41.75;;;10.10;99.90;;;11.36;100.00;97099.94;5261331;28;20259;-63
2022/04/25 06:18:41;;;;;;;46.60;41.70;;;9.90;99.90;;;11.25;100.00;97101.16;5263729;28;20743;-63
2022/04/25 06:21:14;;;;;;;49.45;42.63;;;9.80;99.90;;;11.16;100.00;97106.75;5255015;28;20637;-63
2022/04/25 06:23:47;;;;;;;45.70;40.80;;;9.80;99.90;;;11.04;100.00;97108.78;5250506;28;20292;-64
2022/04/25 06:26:21;;;;;;;44.67;39.85;;;9.80;99.90;;;11.03;100.00;97107.03;5257827;28;20703;-63
2022/04/25 06:28:54;;;;;;;47.70;42.50;;;9.80;99.90;;;10.93;100.00;97108.34;5258819;28;20569;-63
2022/04/25 06:31:27;;;;;;;48.17;42.88;;;9.80;99.90;;;10.99;100.00;97112.84;5255067;28;20220;-63
2022/04/25 06:34:02;;;;;;;47.08;42.15;;;9.80;99.90;;;10.95;100.00;97113.50;5261413;28;20655;-64
2022/04/25 06:36:36;;;;;;;45.20;40.50;;;9.80;99.90;;;10.93;100.00;97110.00;5253748;28;20330;-63
2022/04/25 06:39:09;;;;;;;45.38;40.58;;;9.80;99.90;;;11.02;100.00;97113.84;5255085;28;20714;-63
2022/04/25 06:41:43;;;;;;;49.30;42.65;;;9.90;99.90;;;11.48;100.00;97112.34;5261101;28;20200;-63
2022/04/25 06:44:16;;;;;;;48.42;43.35;;;10.30;99.90;;;11.87;100.00;97118.22;5251445;28;20700;-64
2022/04/25 06:46:49;;;;;;;45.38;40.78;;;10.60;99.90;;;12.22;100.00;97116.19;5252388;28;20656;-63
2022/04/25 06:49:27;;;;;;;44.33;39.80;;;10.90;99.90;;;12.50;100.00;97120.66;5254571;28;20231;-63
2022/04/25 06:52:02;;;;;;;40.60;36.55;;;11.10;99.90;;;13.04;99.88;97118.34;5258247;28;20207;-64
2022/04/25 06:54:36;;;;;;;37.78;34.20;;;11.40;99.90;;;12.94;95.30;97116.28;5265546;28;20260;-64
2022/04/25 06:57:15;;;;;;;36.55;33.15;;;11.40;99.90;;;13.02;93.33;97121.69;5259300;28;20222;-64
2022/04/25 06:59:48;;;;;;;36.85;33.45;;;11.40;99.90;;;13.26;98.22;97117.44;5257650;28;20224;-63
2022/04/25 07:02:21;;;;;;;37.40;33.90;;;11.50;99.90;;;13.22;97.98;97110.44;5254492;28;20287;-63
2022/04/25 07:04:56;;;;;;;38.13;34.53;;;11.50;99.90;;;13.32;94.10;97115.91;5264441;28;20606;-64
2022/04/25 07:07:29;;;;;;;35.35;31.90;;;11.60;99.90;;;13.27;94.32;97120.88;5253557;28;20247;-63
2022/04/25 07:10:03;;;;;;;35.90;32.42;;;11.40;99.90;;;12.95;93.90;97123.16;5255487;28;20290;-63
2022/04/25 07:12:36;;;;;;;35.58;32.17;;;11.40;99.90;;;12.88;91.58;97120.31;5249661;28;20315;-63
2022/04/25 07:15:11;;;;;;;35.97;32.67;;;11.40;99.90;;;13.18;96.50;97115.41;5254341;28;20740;-63
2022/04/25 07:17:44;;;;;;;34.47;31.27;;;11.50;99.90;;;13.24;92.80;97115.59;5251886;28;20278;-63
2022/04/25 07:20:19;;;;;;;33.40;30.38;;;11.70;99.90;;;13.96;90.63;97113.78;5249470;28;20303;-63
2022/04/25 07:28:53;;;;;;;29.10;26.60;;;13.00;99.90;;;14.91;84.33;97125.16;5252600;28;20299;-62
2022/04/25 07:31:26;;;;;;;27.92;25.50;;;13.40;99.90;;;15.62;89.62;97122.78;5249675;28;20223;-61
2022/04/25 07:33:59;;;;;;;26.85;24.55;;;13.90;99.90;;;15.81;81.41;97124.16;5249656;28;20252;-61
2022/04/25 07:36:36;;;;;;;24.00;22.02;;;14.20;99.90;;;15.89;73.44;97110.63;5251761;28;20695;-61
2022/04/25 07:39:09;;;;;;;24.27;22.38;;;14.30;99.90;;;16.35;84.01;97118.56;5255480;28;20231;-61
2022/04/25 07:41:44;;;;;;;24.15;22.15;;;14.70;99.90;;;16.67;73.42;97111.50;5250102;28;20230;-61
2022/04/25 07:44:17;;;;;;;23.58;21.67;;;15.10;99.90;;;16.56;70.29;97113.84;5257162;28;20199;-60
2022/04/25 07:46:50;;;;;;;24.17;22.08;;;15.10;99.90;;;15.70;72.17;97122.16;5249567;28;20296;-61
2022/04/25 07:49:24;;;;;;;22.55;20.80;;;14.40;99.90;;;15.70;73.14;97124.75;5252812;28;20224;-60
2022/04/25 07:51:58;;;;;;;21.83;20.08;;;14.20;99.90;;;15.18;72.07;97127.66;5253893;28;20239;-60
2022/04/25 07:54:32;;;;;;;21.98;20.17;;;13.80;99.90;;;14.49;71.81;97131.66;5251326;28;20283;-60
2022/04/25 07:57:05;;;;;;;20.67;19.08;;;13.30;99.90;;;14.31;76.27;97139.69;5251594;28;20799;-60
2022/04/25 07:59:39;;;;;;;16.58;15.27;;;13.00;99.90;;;14.26;73.30;97136.09;5252021;28;20287;-60
2022/04/25 08:02:12;;;;;;;16.27;15.07;;;12.90;99.90;;;14.15;75.69;97132.34;5249135;28;20363;-60
2022/04/25 08:04:46;;;;;;;16.75;15.45;;;12.90;99.90;;;13.96;74.96;97139.47;5251957;28;20192;-60
2022/04/25 08:07:20;;;;;;;18.00;16.60;;;12.80;99.90;;;14.06;79.06;97137.19;5251414;28;20220;-59
2022/04/25 08:09:53;;;;;;;17.48;16.08;;;12.80;99.90;;;13.90;72.96;97141.81;5262684;28;20241;-59
2022/04/25 08:18:08;;;;;;;18.40;16.83;;;12.80;99.90;;;13.98;77.72;97147.22;5260158;28;20571;-59
2022/04/25 08:20:42;;;;;;;18.17;16.77;;;13.00;99.90;;;14.31;74.68;97152.56;5254491;28;20303;-59
2022/04/25 08:23:17;;;;;;;18.30;16.80;;;13.40;99.90;;;14.81;81.32;97149.78;5256338;28;20559;-59
2022/04/25 08:25:52;;;;;;;18.40;17.00;;;13.90;99.90;;;15.13;73.38;97152.38;5252842;28;20216;-59
2022/04/25 08:28:25;;;;;;;16.17;14.88;;;14.30;99.90;;;15.22;70.51;97148.38;5249685;28;20740;-59
2022/04/25 08:31:18;;;;;;;17.20;15.77;;;14.50;99.90;;;15.56;77.51;97159.56;5251346;28;21696;-59
2022/04/25 08:33:52;;;;;;;17.70;16.30;;;14.60;99.90;;;15.47;73.55;97155.03;5253810;28;20768;-59
2022/04/25 08:36:26;;;;;;;18.02;16.63;;;14.60;99.90;;;15.72;75.99;97159.16;5250975;28;20333;-59
2022/04/25 08:39:01;;;;;;;18.15;16.75;;;14.70;99.90;;;15.26;69.24;97163.06;5255253;28;20199;-57
2022/04/25 08:41:40;;;;;;;18.10;16.73;;;14.30;99.90;;;15.21;73.52;97156.03;5247827;28;20200;-58
2022/04/25 08:44:18;;;;;;;15.85;14.70;;;14.10;99.90;;;15.16;74.58;97160.19;5248178;28;20200;-58
2022/04/25 08:46:54;;;;;;;15.68;14.45;;;14.00;99.90;;;14.90;70.25;97156.88;5253744;28;20220;-58
2022/04/25 08:49:28;;;;;;;16.15;14.85;;;13.80;99.90;;;14.63;71.21;97160.41;5257086;28;20287;-58
2022/04/25 08:52:04;;;;;;;15.35;14.15;;;13.60;99.90;;;14.57;69.67;97163.66;5254327;28;20221;-58
2022/04/25 08:54:38;;;;;;;16.20;14.90;;;13.50;99.90;;;14.24;67.74;97158.31;5260758;28;20619;-56
2022/04/25 08:57:12;;;;;;;15.38;14.18;;;13.30;99.90;;;14.40;73.33;97165.69;5257066;28;20303;-58
2022/04/25 08:59:47;;;;;;;15.63;14.40;;;13.30;99.90;;;14.34;73.28;97155.22;5262467;28;20275;-57
2022/04/25 09:02:22;;;;;;;15.55;14.35;;;13.30;99.90;;;14.15;69.41;97158.91;5259385;28;20286;-58
2022/04/25 09:04:55;;;;;;;15.40;14.18;;;13.30;99.90;;;14.06;69.40;97173.16;5255180;28;20197;-58
2022/04/25 09:07:29;;;;;;;16.02;14.48;;;13.10;99.90;;;14.05;74.17;97167.16;5260151;28;20853;-58
2022/04/25 09:10:04;;;;;;;16.95;15.55;;;13.10;99.90;;;14.37;79.81;97167.31;5260279;28;20231;-57
2022/04/25 09:12:38;;;;;;;15.55;14.25;;;13.30;99.90;;;14.23;71.80;97166.00;5258893;28;20672;-58
2022/04/25 09:15:11;;;;;;;14.95;13.75;;;13.40;99.90;;;14.51;74.46;97172.88;5254418;28;20254;-58
2022/04/25 09:18:00;;;;;;;14.55;13.45;;;13.70;99.90;;;14.81;70.23;97166.06;5262711;28;20531;-58
2022/04/25 09:20:33;;;;;;;13.85;12.75;;;14.20;99.90;;;15.02;71.68;97171.00;5258909;28;20627;-58
2022/04/25 09:23:21;;;;;;;13.70;12.70;;;14.40;99.90;;;15.37;69.71;97175.38;5262608;28;20219;-58
2022/04/25 09:26:13;;;;;;;13.00;12.00;;;14.60;99.90;;;15.51;69.43;97181.78;5260681;28;20299;-58
2022/04/25 09:28:48;;;;;;;14.45;13.35;;;14.70;99.90;;;15.47;66.86;97179.94;5259637;28;20227;-57
2022/04/25 09:31:25;;;;;;;13.13;12.13;;;14.60;99.90;;;15.22;68.13;97188.66;5258159;28;20196;-56
2022/04/25 09:34:16;;;;;;;14.48;13.32;;;14.30;99.90;;;15.06;70.01;97185.69;5259610;28;20234;-57
2022/04/25 09:36:49;;;;;;;14.57;13.55;;;14.20;99.90;;;15.44;77.01;97195.28;5255040;28;20707;-58
2022/04/25 09:39:30;;;;;;;14.20;13.18;;;14.40;99.90;;;15.60;75.18;97187.16;5259442;28;20524;-57
2022/04/25 09:42:06;;;;;;;14.40;13.30;;;14.60;99.90;;;15.59;72.31;97187.97;5262517;28;20188;-57
2022/04/25 09:44:57;;;;;;;14.13;13.13;;;14.60;99.90;;;15.65;71.71;97195.88;5255518;28;20659;-58
2022/04/25 09:47:32;;;;;;;14.65;13.55;;;14.60;99.90;;;15.25;65.74;97191.34;5258705;28;20745;-58
2022/04/25 09:50:08;;;;;;;14.65;13.55;;;14.40;99.90;;;15.18;69.76;97187.72;5257736;28;20287;-58
2022/04/25 09:52:53;;;;;;;14.40;13.30;;;14.20;99.90;;;15.40;79.68;97193.47;5252068;28;20699;-58
2022/04/25 09:55:28;;;;;;;14.07;12.98;;;14.20;99.90;;;15.17;70.72;97193.72;5258773;28;20223;-58
2022/04/25 09:58:16;;;;;;;13.77;12.77;;;14.10;99.90;;;14.72;67.91;97196.69;5250530;28;20200;-58
2022/04/25 10:00:53;;;;;;;13.13;12.05;;;13.90;99.90;;;14.76;70.72;97192.50;5251838;28;20192;-53
2022/04/25 10:03:35;;;;;;;12.80;11.90;;;13.70;99.90;;;14.80;71.78;97196.91;5258602;28;20192;-52
2022/04/25 10:06:09;;;;;;;13.45;12.45;;;13.80;99.90;;;14.66;66.58;97201.66;5251689;28;20277;-57
2022/04/25 10:08:43;;;;;;;12.85;11.85;;;13.70;99.90;;;14.68;70.92;97196.53;5261078;28;20715;-53
2022/04/25 10:11:20;;;;;;;13.18;12.27;;;13.70;99.90;;;14.68;71.52;97187.16;5257068;28;20680;-56
2022/04/25 10:13:55;;;;;;;12.85;11.95;;;13.70;99.90;;;15.02;74.96;97200.97;5253784;28;20216;-56
2022/04/25 10:16:31;;;;;;;13.55;12.55;;;14.10;99.90;;;15.29;66.89;97199.19;5259518;28;20747;-57
2022/04/25 10:19:06;;;;;;;13.00;12.00;;;14.40;99.90;;;15.58;70.87;97195.66;5260943;28;20264;-53
2022/04/25 10:21:40;;;;;;;13.35;12.35;;;14.80;99.90;;;15.94;68.60;97200.94;5256864;28;20850;-55
2022/04/25 10:24:14;;;;;;;12.95;12.05;;;15.10;99.90;;;16.14;65.58;97206.59;5264320;28;20228;-54
2022/04/25 10:26:49;;;;;;;13.38;12.38;;;15.30;99.90;;;16.07;65.95;97202.13;5256757;28;20310;-55
2022/04/25 10:29:29;;;;;;;13.27;12.27;;;15.20;99.90;;;16.06;62.06;97196.09;5259290;28;20566;-53
2022/04/25 10:32:08;;;;;;;13.10;12.10;;;15.30;99.90;;;16.25;62.82;97192.25;5265438;28;20208;-55
2022/04/25 10:34:46;;;;;;;12.95;12.00;;;15.60;99.90;;;16.35;59.80;97185.59;5256735;28;20195;-52
2022/04/25 10:37:30;;;;;;;12.18;11.07;;;15.80;99.90;;;16.49;62.44;97189.38;5252798;28;20229;-53
2022/04/25 10:40:06;;;;;;;10.82;10.07;;;16.00;99.90;;;16.74;62.55;97189.91;5262080;28;20326;-53
2022/04/25 10:45:59;;;;;;;11.70;10.80;;;16.20;99.90;;;17.07;60.26;97193.25;5256997;28;20661;-54
2022/04/25 10:49:07;;;;;;;10.60;9.80;;;16.30;99.90;;;16.80;54.64;97185.81;5255262;28;20200;-56
2022/04/25 10:51:41;;;;;;;11.35;10.48;;;16.20;99.30;;;16.80;59.26;97187.53;5259403;28;20227;-54
2022/04/25 10:54:15;;;;;;;12.07;11.18;;;16.00;99.90;;;16.71;56.37;97189.84;5263434;28;20215;-53
2022/04/25 10:57:15;;;;;;;11.07;10.20;;;16.00;99.90;;;16.53;56.95;97187.72;5261381;28;20215;-56
2022/04/25 10:59:48;;;;;;;10.75;9.95;;;16.00;99.90;;;16.84;61.91;97182.44;5260137;28;20291;-56
2022/04/25 11:02:24;;;;;;;10.35;9.63;;;16.20;99.90;;;16.92;59.19;97185.19;5260015;28;20220;-54
2022/04/25 11:05:35;;;;;;;10.25;9.43;;;16.20;99.90;;;16.86;54.66;97177.31;5258632;28;20196;-58